sensor_id;sensor_type;location;lat;lon;timestamp;P1;durP1;ratioP1;P2;durP2;ratioP2
57443;SDS011;43289;52.962;6.196;2024-02-26T00:00:26;20.30;;;12.48;;
57443;SDS011;43289;52.962;6.196;2024-02-26T00:02:53;20.77;;;12.88;;
57443;SDS011;43289;52.962;6.196;2024-02-26T00:05:19;18.77;;;12.23;;
57443;SDS011;43289;52.962;6.196;2024-02-26T00:07:45;23.27;;;12.57;;
57443;SDS011;43289;52.962;6.196;2024-02-26T00:10:12;22.95;;;13.27;;
57443;SDS011;43289;52.962;6.196;2024-02-26T00:12:39;20.45;;;11.82;;
57443;SDS011;43289;52.962;6.196;2024-02-26T00:15:08;21.95;;;12.40;;
57443;SDS011;43289;52.962;6.196;2024-02-26T00:17:34;21.42;;;12.50;;
57443;SDS011;43289;52.962;6.196;2024-02-26T00:20:01;21.70;;;12.30;;
57443;SDS011;43289;52.962;6.196;2024-02-26T00:22:29;20.73;;;12.60;;
57443;SDS011;43289;52.962;6.196;2024-02-26T00:24:55;21.73;;;12.80;;
57443;SDS011;43289;52.962;6.196;2024-02-26T00:27:21;26.45;;;14.00;;
57443;SDS011;43289;52.962;6.196;2024-02-26T00:29:47;21.67;;;12.93;;
57443;SDS011;43289;52.962;6.196;2024-02-26T00:32:13;28.27;;;13.90;;
57443;SDS011;43289;52.962;6.196;2024-02-26T00:34:39;21.77;;;13.30;;
57443;SDS011;43289;52.962;6.196;2024-02-26T00:37:05;19.40;;;11.90;;
57443;SDS011;43289;52.962;6.196;2024-02-26T00:39:32;23.30;;;14.00;;
57443;SDS011;43289;52.962;6.196;2024-02-26T00:41:58;25.10;;;12.77;;
57443;SDS011;43289;52.962;6.196;2024-02-26T00:44:24;20.55;;;12.27;;
57443;SDS011;43289;52.962;6.196;2024-02-26T00:46:50;20.95;;;12.65;;
57443;SDS011;43289;52.962;6.196;2024-02-26T00:49:16;21.63;;;12.43;;
57443;SDS011;43289;52.962;6.196;2024-02-26T00:51:42;24.35;;;13.82;;
57443;SDS011;43289;52.962;6.196;2024-02-26T00:54:08;19.55;;;11.68;;
57443;SDS011;43289;52.962;6.196;2024-02-26T00:56:34;20.13;;;12.48;;
57443;SDS011;43289;52.962;6.196;2024-02-26T00:59:00;24.20;;;12.65;;
57443;SDS011;43289;52.962;6.196;2024-02-26T01:01:26;21.23;;;12.52;;
57443;SDS011;43289;52.962;6.196;2024-02-26T01:03:52;24.83;;;13.57;;
57443;SDS011;43289;52.962;6.196;2024-02-26T01:06:18;21.27;;;12.40;;
57443;SDS011;43289;52.962;6.196;2024-02-26T01:08:44;24.88;;;12.63;;
57443;SDS011;43289;52.962;6.196;2024-02-26T01:11:11;21.25;;;12.68;;
57443;SDS011;43289;52.962;6.196;2024-02-26T01:13:37;23.20;;;12.10;;
57443;SDS011;43289;52.962;6.196;2024-02-26T01:16:03;25.58;;;14.82;;
57443;SDS011;43289;52.962;6.196;2024-02-26T01:18:29;21.25;;;12.50;;
57443;SDS011;43289;52.962;6.196;2024-02-26T01:20:55;24.95;;;14.55;;
57443;SDS011;43289;52.962;6.196;2024-02-26T01:23:21;25.63;;;12.90;;
57443;SDS011;43289;52.962;6.196;2024-02-26T01:25:47;27.30;;;13.48;;
57443;SDS011;43289;52.962;6.196;2024-02-26T01:28:13;24.88;;;14.40;;
57443;SDS011;43289;52.962;6.196;2024-02-26T01:30:40;25.52;;;13.77;;
57443;SDS011;43289;52.962;6.196;2024-02-26T01:33:06;26.13;;;13.93;;
57443;SDS011;43289;52.962;6.196;2024-02-26T01:35:32;27.52;;;14.98;;
57443;SDS011;43289;52.962;6.196;2024-02-26T01:37:58;29.83;;;14.80;;
57443;SDS011;43289;52.962;6.196;2024-02-26T01:40:27;30.45;;;16.40;;
57443;SDS011;43289;52.962;6.196;2024-02-26T01:42:54;35.33;;;17.00;;
57443;SDS011;43289;52.962;6.196;2024-02-26T01:45:21;34.33;;;17.27;;
57443;SDS011;43289;52.962;6.196;2024-02-26T01:47:52;38.65;;;18.70;;
57443;SDS011;43289;52.962;6.196;2024-02-26T01:50:19;35.60;;;19.63;;
57443;SDS011;43289;52.962;6.196;2024-02-26T01:52:45;38.10;;;17.25;;
57443;SDS011;43289;52.962;6.196;2024-02-26T01:55:13;31.67;;;17.60;;
57443;SDS011;43289;52.962;6.196;2024-02-26T01:57:40;38.55;;;19.30;;
57443;SDS011;43289;52.962;6.196;2024-02-26T02:00:06;37.08;;;18.20;;
57443;SDS011;43289;52.962;6.196;2024-02-26T02:02:32;41.42;;;19.67;;
57443;SDS011;43289;52.962;6.196;2024-02-26T02:04:59;41.45;;;19.55;;
57443;SDS011;43289;52.962;6.196;2024-02-26T02:07:25;34.30;;;18.92;;
57443;SDS011;43289;52.962;6.196;2024-02-26T02:09:51;39.70;;;19.83;;
57443;SDS011;43289;52.962;6.196;2024-02-26T02:12:18;45.53;;;20.50;;
57443;SDS011;43289;52.962;6.196;2024-02-26T02:14:44;34.60;;;19.45;;
57443;SDS011;43289;52.962;6.196;2024-02-26T02:17:10;39.22;;;19.95;;
57443;SDS011;43289;52.962;6.196;2024-02-26T02:19:36;39.80;;;19.80;;
57443;SDS011;43289;52.962;6.196;2024-02-26T02:22:02;34.53;;;19.33;;
57443;SDS011;43289;52.962;6.196;2024-02-26T02:24:28;39.70;;;21.55;;
57443;SDS011;43289;52.962;6.196;2024-02-26T02:26:55;36.05;;;20.23;;
57443;SDS011;43289;52.962;6.196;2024-02-26T02:29:21;39.75;;;21.17;;
57443;SDS011;43289;52.962;6.196;2024-02-26T02:31:47;37.40;;;21.05;;
57443;SDS011;43289;52.962;6.196;2024-02-26T02:34:13;39.78;;;21.67;;
57443;SDS011;43289;52.962;6.196;2024-02-26T02:36:57;38.90;;;21.83;;
57443;SDS011;43289;52.962;6.196;2024-02-26T02:39:24;40.28;;;22.10;;
57443;SDS011;43289;52.962;6.196;2024-02-26T02:41:50;37.63;;;21.77;;
57443;SDS011;43289;52.962;6.196;2024-02-26T02:44:16;35.67;;;20.48;;
57443;SDS011;43289;52.962;6.196;2024-02-26T02:46:42;36.47;;;20.00;;
57443;SDS011;43289;52.962;6.196;2024-02-26T02:49:09;35.88;;;20.27;;
57443;SDS011;43289;52.962;6.196;2024-02-26T02:51:35;36.83;;;20.80;;
57443;SDS011;43289;52.962;6.196;2024-02-26T02:54:02;34.30;;;19.70;;
57443;SDS011;43289;52.962;6.196;2024-02-26T02:56:28;31.10;;;17.75;;
57443;SDS011;43289;52.962;6.196;2024-02-26T02:58:54;32.90;;;18.35;;
57443;SDS011;43289;52.962;6.196;2024-02-26T03:01:20;31.70;;;17.92;;
57443;SDS011;43289;52.962;6.196;2024-02-26T03:03:46;33.05;;;18.77;;
57443;SDS011;43289;52.962;6.196;2024-02-26T03:06:12;32.30;;;17.77;;
57443;SDS011;43289;52.962;6.196;2024-02-26T03:08:38;30.55;;;16.92;;
57443;SDS011;43289;52.962;6.196;2024-02-26T03:11:05;30.02;;;17.00;;
57443;SDS011;43289;52.962;6.196;2024-02-26T03:13:31;28.23;;;16.90;;
57443;SDS011;43289;52.962;6.196;2024-02-26T03:15:57;28.50;;;16.38;;
57443;SDS011;43289;52.962;6.196;2024-02-26T03:18:23;26.00;;;14.95;;
57443;SDS011;43289;52.962;6.196;2024-02-26T03:20:49;24.33;;;14.77;;
57443;SDS011;43289;52.962;6.196;2024-02-26T03:23:15;26.92;;;15.02;;
57443;SDS011;43289;52.962;6.196;2024-02-26T03:25:45;23.67;;;13.80;;
57443;SDS011;43289;52.962;6.196;2024-02-26T03:28:12;21.75;;;13.20;;
57443;SDS011;43289;52.962;6.196;2024-02-26T03:30:38;21.70;;;13.23;;
57443;SDS011;43289;52.962;6.196;2024-02-26T03:33:04;23.48;;;13.98;;
57443;SDS011;43289;52.962;6.196;2024-02-26T03:35:30;18.60;;;12.52;;
57443;SDS011;43289;52.962;6.196;2024-02-26T03:37:56;21.45;;;13.23;;
57443;SDS011;43289;52.962;6.196;2024-02-26T03:40:22;17.33;;;11.18;;
57443;SDS011;43289;52.962;6.196;2024-02-26T03:42:49;19.13;;;13.25;;
57443;SDS011;43289;52.962;6.196;2024-02-26T03:45:17;19.95;;;11.55;;
57443;SDS011;43289;52.962;6.196;2024-02-26T03:47:43;17.50;;;11.63;;
57443;SDS011;43289;52.962;6.196;2024-02-26T03:50:09;20.33;;;12.02;;
57443;SDS011;43289;52.962;6.196;2024-02-26T03:52:35;15.88;;;9.95;;
57443;SDS011;43289;52.962;6.196;2024-02-26T03:55:02;18.58;;;10.98;;
57443;SDS011;43289;52.962;6.196;2024-02-26T03:57:28;17.08;;;10.52;;
57443;SDS011;43289;52.962;6.196;2024-02-26T03:59:54;16.80;;;10.52;;
57443;SDS011;43289;52.962;6.196;2024-02-26T04:02:20;16.85;;;10.55;;
57443;SDS011;43289;52.962;6.196;2024-02-26T04:04:48;17.50;;;10.30;;
57443;SDS011;43289;52.962;6.196;2024-02-26T04:07:14;15.88;;;10.55;;
57443;SDS011;43289;52.962;6.196;2024-02-26T04:09:40;16.70;;;10.50;;
57443;SDS011;43289;52.962;6.196;2024-02-26T04:12:06;17.77;;;10.48;;
57443;SDS011;43289;52.962;6.196;2024-02-26T04:14:32;17.20;;;9.30;;
57443;SDS011;43289;52.962;6.196;2024-02-26T04:16:58;15.48;;;9.98;;
57443;SDS011;43289;52.962;6.196;2024-02-26T04:19:24;15.80;;;9.38;;
57443;SDS011;43289;52.962;6.196;2024-02-26T04:21:50;16.58;;;9.32;;
57443;SDS011;43289;52.962;6.196;2024-02-26T04:24:16;17.52;;;9.60;;
57443;SDS011;43289;52.962;6.196;2024-02-26T04:26:43;16.02;;;9.15;;
57443;SDS011;43289;52.962;6.196;2024-02-26T04:29:09;12.88;;;8.00;;
57443;SDS011;43289;52.962;6.196;2024-02-26T04:31:35;12.15;;;8.23;;
57443;SDS011;43289;52.962;6.196;2024-02-26T04:34:02;14.43;;;8.50;;
57443;SDS011;43289;52.962;6.196;2024-02-26T04:36:28;11.27;;;7.32;;
57443;SDS011;43289;52.962;6.196;2024-02-26T04:38:54;12.23;;;7.60;;
57443;SDS011;43289;52.962;6.196;2024-02-26T04:41:21;13.60;;;7.68;;
57443;SDS011;43289;52.962;6.196;2024-02-26T04:43:47;11.40;;;7.47;;
57443;SDS011;43289;52.962;6.196;2024-02-26T04:46:13;11.93;;;7.53;;
57443;SDS011;43289;52.962;6.196;2024-02-26T04:48:39;19.17;;;7.82;;
57443;SDS011;43289;52.962;6.196;2024-02-26T04:51:06;10.25;;;6.28;;
57443;SDS011;43289;52.962;6.196;2024-02-26T04:53:32;13.77;;;7.05;;
57443;SDS011;43289;52.962;6.196;2024-02-26T04:55:59;10.27;;;6.10;;
57443;SDS011;43289;52.962;6.196;2024-02-26T04:58:25;11.20;;;6.97;;
57443;SDS011;43289;52.962;6.196;2024-02-26T05:00:51;9.75;;;6.35;;
57443;SDS011;43289;52.962;6.196;2024-02-26T05:03:17;10.00;;;5.72;;
57443;SDS011;43289;52.962;6.196;2024-02-26T05:05:43;10.25;;;6.30;;
57443;SDS011;43289;52.962;6.196;2024-02-26T05:08:09;10.88;;;5.88;;
57443;SDS011;43289;52.962;6.196;2024-02-26T05:10:36;11.70;;;5.55;;
57443;SDS011;43289;52.962;6.196;2024-02-26T05:13:06;10.52;;;5.78;;
57443;SDS011;43289;52.962;6.196;2024-02-26T05:15:32;8.55;;;5.40;;
57443;SDS011;43289;52.962;6.196;2024-02-26T05:17:58;10.23;;;5.13;;
57443;SDS011;43289;52.962;6.196;2024-02-26T05:20:24;9.35;;;5.40;;
57443;SDS011;43289;52.962;6.196;2024-02-26T05:22:50;9.43;;;5.55;;
57443;SDS011;43289;52.962;6.196;2024-02-26T05:25:17;11.85;;;6.07;;
57443;SDS011;43289;52.962;6.196;2024-02-26T05:27:43;9.13;;;5.38;;
57443;SDS011;43289;52.962;6.196;2024-02-26T05:30:10;7.30;;;4.18;;
57443;SDS011;43289;52.962;6.196;2024-02-26T05:32:36;7.93;;;4.63;;
57443;SDS011;43289;52.962;6.196;2024-02-26T05:35:02;8.10;;;5.00;;
57443;SDS011;43289;52.962;6.196;2024-02-26T05:37:28;8.18;;;4.55;;
57443;SDS011;43289;52.962;6.196;2024-02-26T05:39:55;9.27;;;4.93;;
57443;SDS011;43289;52.962;6.196;2024-02-26T05:42:21;9.73;;;5.00;;
57443;SDS011;43289;52.962;6.196;2024-02-26T05:44:47;7.13;;;4.22;;
57443;SDS011;43289;52.962;6.196;2024-02-26T05:47:13;6.35;;;4.53;;
57443;SDS011;43289;52.962;6.196;2024-02-26T05:49:39;7.53;;;4.55;;
57443;SDS011;43289;52.962;6.196;2024-02-26T05:52:05;11.50;;;4.70;;
57443;SDS011;43289;52.962;6.196;2024-02-26T05:54:31;8.88;;;4.50;;
57443;SDS011;43289;52.962;6.196;2024-02-26T05:56:58;9.02;;;4.80;;
57443;SDS011;43289;52.962;6.196;2024-02-26T05:59:24;8.88;;;4.40;;
57443;SDS011;43289;52.962;6.196;2024-02-26T06:01:50;9.13;;;4.22;;
57443;SDS011;43289;52.962;6.196;2024-02-26T06:04:16;7.00;;;4.70;;
57443;SDS011;43289;52.962;6.196;2024-02-26T06:09:09;6.95;;;4.45;;
57443;SDS011;43289;52.962;6.196;2024-02-26T06:11:36;6.43;;;3.53;;
57443;SDS011;43289;52.962;6.196;2024-02-26T06:14:02;5.88;;;3.67;;
57443;SDS011;43289;52.962;6.196;2024-02-26T06:16:28;6.47;;;3.95;;
57443;SDS011;43289;52.962;6.196;2024-02-26T06:18:54;6.57;;;4.03;;
57443;SDS011;43289;52.962;6.196;2024-02-26T06:21:21;6.30;;;3.67;;
57443;SDS011;43289;52.962;6.196;2024-02-26T06:23:47;6.13;;;3.90;;
57443;SDS011;43289;52.962;6.196;2024-02-26T06:26:14;6.63;;;4.05;;
57443;SDS011;43289;52.962;6.196;2024-02-26T06:28:40;6.38;;;4.05;;
57443;SDS011;43289;52.962;6.196;2024-02-26T06:31:06;9.55;;;4.43;;
57443;SDS011;43289;52.962;6.196;2024-02-26T06:33:32;5.82;;;3.50;;
57443;SDS011;43289;52.962;6.196;2024-02-26T06:35:58;7.70;;;4.60;;
57443;SDS011;43289;52.962;6.196;2024-02-26T06:38:24;6.07;;;3.55;;
57443;SDS011;43289;52.962;6.196;2024-02-26T06:40:50;6.28;;;3.55;;
57443;SDS011;43289;52.962;6.196;2024-02-26T06:43:16;8.52;;;4.18;;
57443;SDS011;43289;52.962;6.196;2024-02-26T06:45:42;5.65;;;3.47;;
57443;SDS011;43289;52.962;6.196;2024-02-26T06:48:08;7.63;;;4.25;;
57443;SDS011;43289;52.962;6.196;2024-02-26T06:50:34;5.20;;;3.05;;
57443;SDS011;43289;52.962;6.196;2024-02-26T06:53:01;6.40;;;4.13;;
57443;SDS011;43289;52.962;6.196;2024-02-26T06:55:27;6.55;;;3.80;;
57443;SDS011;43289;52.962;6.196;2024-02-26T06:57:53;6.10;;;3.70;;
57443;SDS011;43289;52.962;6.196;2024-02-26T07:00:19;7.07;;;3.75;;
57443;SDS011;43289;52.962;6.196;2024-02-26T07:02:45;7.13;;;3.53;;
57443;SDS011;43289;52.962;6.196;2024-02-26T07:05:11;6.18;;;3.80;;
57443;SDS011;43289;52.962;6.196;2024-02-26T07:07:37;7.68;;;3.92;;
57443;SDS011;43289;52.962;6.196;2024-02-26T07:10:03;6.00;;;3.65;;
57443;SDS011;43289;52.962;6.196;2024-02-26T07:12:30;7.53;;;4.10;;
57443;SDS011;43289;52.962;6.196;2024-02-26T07:14:56;6.50;;;3.63;;
57443;SDS011;43289;52.962;6.196;2024-02-26T07:17:23;6.80;;;3.80;;
57443;SDS011;43289;52.962;6.196;2024-02-26T07:19:49;6.38;;;3.92;;
57443;SDS011;43289;52.962;6.196;2024-02-26T07:22:15;5.53;;;3.15;;
57443;SDS011;43289;52.962;6.196;2024-02-26T07:24:41;7.07;;;3.80;;
57443;SDS011;43289;52.962;6.196;2024-02-26T07:27:07;5.82;;;4.10;;
57443;SDS011;43289;52.962;6.196;2024-02-26T07:29:33;7.20;;;4.07;;
57443;SDS011;43289;52.962;6.196;2024-02-26T07:31:59;5.13;;;3.50;;
57443;SDS011;43289;52.962;6.196;2024-02-26T07:34:25;6.55;;;3.95;;
57443;SDS011;43289;52.962;6.196;2024-02-26T07:36:54;5.93;;;3.78;;
57443;SDS011;43289;52.962;6.196;2024-02-26T07:39:21;5.78;;;3.85;;
57443;SDS011;43289;52.962;6.196;2024-02-26T07:41:47;6.38;;;3.85;;
57443;SDS011;43289;52.962;6.196;2024-02-26T07:44:15;5.70;;;3.50;;
57443;SDS011;43289;52.962;6.196;2024-02-26T07:46:41;7.32;;;3.63;;
57443;SDS011;43289;52.962;6.196;2024-02-26T07:49:07;6.20;;;3.35;;
57443;SDS011;43289;52.962;6.196;2024-02-26T07:51:33;6.20;;;3.40;;
57443;SDS011;43289;52.962;6.196;2024-02-26T07:54:00;5.93;;;3.45;;
57443;SDS011;43289;52.962;6.196;2024-02-26T07:56:26;5.70;;;3.90;;
57443;SDS011;43289;52.962;6.196;2024-02-26T07:58:52;5.82;;;3.72;;
57443;SDS011;43289;52.962;6.196;2024-02-26T08:01:18;6.15;;;3.33;;
57443;SDS011;43289;52.962;6.196;2024-02-26T08:03:44;6.68;;;3.55;;
57443;SDS011;43289;52.962;6.196;2024-02-26T08:06:10;5.35;;;3.50;;
57443;SDS011;43289;52.962;6.196;2024-02-26T08:08:36;5.95;;;3.60;;
57443;SDS011;43289;52.962;6.196;2024-02-26T08:11:02;6.43;;;3.85;;
57443;SDS011;43289;52.962;6.196;2024-02-26T08:13:28;7.05;;;4.03;;
57443;SDS011;43289;52.962;6.196;2024-02-26T08:15:54;6.10;;;3.70;;
57443;SDS011;43289;52.962;6.196;2024-02-26T08:18:21;5.97;;;3.67;;
57443;SDS011;43289;52.962;6.196;2024-02-26T08:20:47;5.43;;;3.42;;
57443;SDS011;43289;52.962;6.196;2024-02-26T08:23:14;7.00;;;3.95;;
57443;SDS011;43289;52.962;6.196;2024-02-26T08:25:40;6.40;;;3.75;;
57443;SDS011;43289;52.962;6.196;2024-02-26T08:28:06;5.97;;;3.72;;
57443;SDS011;43289;52.962;6.196;2024-02-26T08:30:32;6.43;;;3.95;;
57443;SDS011;43289;52.962;6.196;2024-02-26T08:32:59;5.70;;;3.58;;
57443;SDS011;43289;52.962;6.196;2024-02-26T08:35:25;6.28;;;3.67;;
57443;SDS011;43289;52.962;6.196;2024-02-26T08:37:51;6.45;;;4.03;;
57443;SDS011;43289;52.962;6.196;2024-02-26T08:40:17;4.88;;;2.85;;
57443;SDS011;43289;52.962;6.196;2024-02-26T08:42:44;6.72;;;3.22;;
57443;SDS011;43289;52.962;6.196;2024-02-26T08:45:11;5.32;;;3.65;;
57443;SDS011;43289;52.962;6.196;2024-02-26T08:47:37;6.65;;;3.42;;
57443;SDS011;43289;52.962;6.196;2024-02-26T08:50:04;4.65;;;2.95;;
57443;SDS011;43289;52.962;6.196;2024-02-26T08:52:31;6.43;;;3.53;;
57443;SDS011;43289;52.962;6.196;2024-02-26T08:54:58;5.57;;;3.50;;
57443;SDS011;43289;52.962;6.196;2024-02-26T08:57:24;5.10;;;3.17;;
57443;SDS011;43289;52.962;6.196;2024-02-26T08:59:52;7.65;;;3.33;;
57443;SDS011;43289;52.962;6.196;2024-02-26T09:02:18;4.15;;;2.83;;
57443;SDS011;43289;52.962;6.196;2024-02-26T09:04:45;5.20;;;2.72;;
57443;SDS011;43289;52.962;6.196;2024-02-26T09:07:11;4.32;;;2.58;;
57443;SDS011;43289;52.962;6.196;2024-02-26T09:09:37;6.25;;;2.78;;
57443;SDS011;43289;52.962;6.196;2024-02-26T09:12:03;5.20;;;2.72;;
57443;SDS011;43289;52.962;6.196;2024-02-26T09:14:29;4.85;;;2.75;;
57443;SDS011;43289;52.962;6.196;2024-02-26T09:16:55;4.22;;;2.70;;
57443;SDS011;43289;52.962;6.196;2024-02-26T09:19:21;5.10;;;3.17;;
57443;SDS011;43289;52.962;6.196;2024-02-26T09:21:47;5.80;;;3.42;;
57443;SDS011;43289;52.962;6.196;2024-02-26T09:24:13;6.22;;;3.03;;
57443;SDS011;43289;52.962;6.196;2024-02-26T09:26:39;5.10;;;3.28;;
57443;SDS011;43289;52.962;6.196;2024-02-26T09:29:05;6.57;;;2.90;;
57443;SDS011;43289;52.962;6.196;2024-02-26T09:31:33;4.95;;;3.10;;
57443;SDS011;43289;52.962;6.196;2024-02-26T09:33:59;5.68;;;3.25;;
57443;SDS011;43289;52.962;6.196;2024-02-26T09:36:25;5.80;;;2.75;;
57443;SDS011;43289;52.962;6.196;2024-02-26T09:38:52;5.68;;;3.03;;
57443;SDS011;43289;52.962;6.196;2024-02-26T09:41:18;4.22;;;2.80;;
57443;SDS011;43289;52.962;6.196;2024-02-26T09:43:45;5.22;;;3.17;;
57443;SDS011;43289;52.962;6.196;2024-02-26T09:46:11;4.43;;;2.50;;
57443;SDS011;43289;52.962;6.196;2024-02-26T09:48:39;4.28;;;2.63;;
57443;SDS011;43289;52.962;6.196;2024-02-26T09:51:06;5.07;;;2.40;;
57443;SDS011;43289;52.962;6.196;2024-02-26T09:53:32;4.80;;;3.03;;
57443;SDS011;43289;52.962;6.196;2024-02-26T09:55:58;5.22;;;3.08;;
57443;SDS011;43289;52.962;6.196;2024-02-26T09:58:25;5.07;;;2.53;;
57443;SDS011;43289;52.962;6.196;2024-02-26T10:00:53;3.85;;;2.40;;
57443;SDS011;43289;52.962;6.196;2024-02-26T10:03:25;4.72;;;2.92;;
57443;SDS011;43289;52.962;6.196;2024-02-26T10:05:51;5.50;;;2.80;;
57443;SDS011;43289;52.962;6.196;2024-02-26T10:08:20;4.90;;;3.45;;
57443;SDS011;43289;52.962;6.196;2024-02-26T10:10:47;4.68;;;2.60;;
57443;SDS011;43289;52.962;6.196;2024-02-26T10:13:13;5.85;;;3.00;;
57443;SDS011;43289;52.962;6.196;2024-02-26T10:15:39;4.30;;;2.75;;
57443;SDS011;43289;52.962;6.196;2024-02-26T10:18:06;3.70;;;2.45;;
57443;SDS011;43289;52.962;6.196;2024-02-26T10:20:32;5.95;;;2.80;;
57443;SDS011;43289;52.962;6.196;2024-02-26T10:23:02;4.70;;;3.10;;
57443;SDS011;43289;52.962;6.196;2024-02-26T10:25:30;3.83;;;2.05;;
57443;SDS011;43289;52.962;6.196;2024-02-26T10:27:59;5.93;;;2.65;;
57443;SDS011;43289;52.962;6.196;2024-02-26T10:30:28;4.53;;;2.97;;
57443;SDS011;43289;52.962;6.196;2024-02-26T10:32:55;3.70;;;2.33;;
57443;SDS011;43289;52.962;6.196;2024-02-26T10:35:22;4.80;;;2.33;;
57443;SDS011;43289;52.962;6.196;2024-02-26T10:37:49;5.45;;;2.42;;
57443;SDS011;43289;52.962;6.196;2024-02-26T10:40:16;4.28;;;2.50;;
57443;SDS011;43289;52.962;6.196;2024-02-26T10:42:42;4.28;;;2.70;;
57443;SDS011;43289;52.962;6.196;2024-02-26T10:45:10;3.80;;;2.45;;
57443;SDS011;43289;52.962;6.196;2024-02-26T10:47:37;4.13;;;2.70;;
57443;SDS011;43289;52.962;6.196;2024-02-26T10:50:04;4.53;;;2.70;;
57443;SDS011;43289;52.962;6.196;2024-02-26T10:52:31;4.13;;;2.53;;
57443;SDS011;43289;52.962;6.196;2024-02-26T10:55:00;3.97;;;2.50;;
57443;SDS011;43289;52.962;6.196;2024-02-26T10:57:27;4.95;;;2.75;;
57443;SDS011;43289;52.962;6.196;2024-02-26T10:59:57;4.68;;;2.70;;
57443;SDS011;43289;52.962;6.196;2024-02-26T11:02:23;6.15;;;2.33;;
57443;SDS011;43289;52.962;6.196;2024-02-26T11:04:50;4.22;;;2.30;;
57443;SDS011;43289;52.962;6.196;2024-02-26T11:07:16;4.00;;;2.22;;
57443;SDS011;43289;52.962;6.196;2024-02-26T11:09:43;3.80;;;2.42;;
57443;SDS011;43289;52.962;6.196;2024-02-26T11:12:12;4.28;;;2.70;;
57443;SDS011;43289;52.962;6.196;2024-02-26T11:14:42;4.75;;;2.78;;
57443;SDS011;43289;52.962;6.196;2024-02-26T11:17:09;4.05;;;2.80;;
57443;SDS011;43289;52.962;6.196;2024-02-26T11:19:36;6.80;;;2.88;;
57443;SDS011;43289;52.962;6.196;2024-02-26T11:22:03;5.05;;;2.60;;
57443;SDS011;43289;52.962;6.196;2024-02-26T11:24:30;4.03;;;2.45;;
57443;SDS011;43289;52.962;6.196;2024-02-26T11:26:57;4.75;;;2.40;;
57443;SDS011;43289;52.962;6.196;2024-02-26T11:29:27;4.68;;;2.85;;
57443;SDS011;43289;52.962;6.196;2024-02-26T11:31:54;4.50;;;2.33;;
57443;SDS011;43289;52.962;6.196;2024-02-26T11:34:20;3.88;;;2.15;;
57443;SDS011;43289;52.962;6.196;2024-02-26T11:36:46;8.55;;;3.30;;
57443;SDS011;43289;52.962;6.196;2024-02-26T11:39:12;3.65;;;2.03;;
57443;SDS011;43289;52.962;6.196;2024-02-26T11:41:41;5.28;;;2.47;;
57443;SDS011;43289;52.962;6.196;2024-02-26T11:44:07;7.75;;;2.47;;
57443;SDS011;43289;52.962;6.196;2024-02-26T11:46:40;5.13;;;2.20;;
57443;SDS011;43289;52.962;6.196;2024-02-26T11:51:56;4.13;;;2.40;;
57443;SDS011;43289;52.962;6.196;2024-02-26T12:00:15;3.67;;;2.30;;
57443;SDS011;43289;52.962;6.196;2024-02-26T12:02:47;4.97;;;2.45;;
57443;SDS011;43289;52.962;6.196;2024-02-26T12:05:16;4.43;;;2.13;;
57443;SDS011;43289;52.962;6.196;2024-02-26T12:07:46;3.50;;;1.85;;
57443;SDS011;43289;52.962;6.196;2024-02-26T12:12:52;3.55;;;2.17;;
57443;SDS011;43289;52.962;6.196;2024-02-26T12:15:18;4.97;;;2.22;;
57443;SDS011;43289;52.962;6.196;2024-02-26T12:17:48;4.45;;;2.40;;
57443;SDS011;43289;52.962;6.196;2024-02-26T12:20:14;4.68;;;2.53;;
57443;SDS011;43289;52.962;6.196;2024-02-26T12:22:44;5.60;;;2.28;;
57443;SDS011;43289;52.962;6.196;2024-02-26T12:25:11;3.75;;;2.42;;
57443;SDS011;43289;52.962;6.196;2024-02-26T12:27:38;5.30;;;2.30;;
57443;SDS011;43289;52.962;6.196;2024-02-26T12:30:04;3.85;;;2.30;;
57443;SDS011;43289;52.962;6.196;2024-02-26T12:32:31;3.75;;;2.50;;
57443;SDS011;43289;52.962;6.196;2024-02-26T12:34:58;6.38;;;2.28;;
57443;SDS011;43289;52.962;6.196;2024-02-26T12:37:25;4.72;;;3.00;;
57443;SDS011;43289;52.962;6.196;2024-02-26T12:39:51;4.97;;;3.00;;
57443;SDS011;43289;52.962;6.196;2024-02-26T12:42:17;8.25;;;3.70;;
57443;SDS011;43289;52.962;6.196;2024-02-26T12:44:46;5.78;;;3.20;;
57443;SDS011;43289;52.962;6.196;2024-02-26T12:47:12;6.82;;;3.88;;
57443;SDS011;43289;52.962;6.196;2024-02-26T12:49:42;6.43;;;3.78;;
57443;SDS011;43289;52.962;6.196;2024-02-26T12:52:09;5.38;;;3.50;;
57443;SDS011;43289;52.962;6.196;2024-02-26T12:54:36;7.75;;;3.40;;
57443;SDS011;43289;52.962;6.196;2024-02-26T12:57:06;5.88;;;3.30;;
57443;SDS011;43289;52.962;6.196;2024-02-26T12:59:34;5.75;;;3.67;;
57443;SDS011;43289;52.962;6.196;2024-02-26T13:02:01;6.50;;;3.88;;
57443;SDS011;43289;52.962;6.196;2024-02-26T13:04:28;8.40;;;4.10;;
57443;SDS011;43289;52.962;6.196;2024-02-26T13:06:54;6.75;;;3.35;;
57443;SDS011;43289;52.962;6.196;2024-02-26T13:09:20;6.57;;;3.75;;
57443;SDS011;43289;52.962;6.196;2024-02-26T13:11:53;6.28;;;4.13;;
57443;SDS011;43289;52.962;6.196;2024-02-26T13:14:22;8.98;;;4.53;;
57443;SDS011;43289;52.962;6.196;2024-02-26T13:16:55;9.13;;;4.00;;
57443;SDS011;43289;52.962;6.196;2024-02-26T13:19:21;7.88;;;4.18;;
57443;SDS011;43289;52.962;6.196;2024-02-26T13:21:47;7.53;;;5.03;;
57443;SDS011;43289;52.962;6.196;2024-02-26T13:24:13;9.52;;;4.60;;
57443;SDS011;43289;52.962;6.196;2024-02-26T13:26:39;6.97;;;4.88;;
57443;SDS011;43289;52.962;6.196;2024-02-26T13:29:06;8.48;;;3.17;;
57443;SDS011;43289;52.962;6.196;2024-02-26T13:31:32;6.63;;;5.05;;
57443;SDS011;43289;52.962;6.196;2024-02-26T13:34:05;7.05;;;4.72;;
57443;SDS011;43289;52.962;6.196;2024-02-26T13:36:31;7.28;;;4.60;;
57443;SDS011;43289;52.962;6.196;2024-02-26T13:38:57;6.88;;;4.70;;
57443;SDS011;43289;52.962;6.196;2024-02-26T13:41:23;7.82;;;4.45;;
57443;SDS011;43289;52.962;6.196;2024-02-26T13:43:50;6.18;;;3.78;;
57443;SDS011;43289;52.962;6.196;2024-02-26T13:46:16;7.68;;;4.40;;
57443;SDS011;43289;52.962;6.196;2024-02-26T13:48:42;7.20;;;4.65;;
57443;SDS011;43289;52.962;6.196;2024-02-26T13:51:09;10.25;;;4.50;;
57443;SDS011;43289;52.962;6.196;2024-02-26T13:53:35;7.50;;;5.10;;
57443;SDS011;43289;52.962;6.196;2024-02-26T13:56:01;7.97;;;5.28;;
57443;SDS011;43289;52.962;6.196;2024-02-26T13:58:30;6.72;;;4.20;;
57443;SDS011;43289;52.962;6.196;2024-02-26T14:00:56;6.25;;;3.53;;
57443;SDS011;43289;52.962;6.196;2024-02-26T14:03:24;6.80;;;4.88;;
57443;SDS011;43289;52.962;6.196;2024-02-26T14:05:51;8.32;;;5.00;;
57443;SDS011;43289;52.962;6.196;2024-02-26T14:08:17;8.98;;;5.20;;
57443;SDS011;43289;52.962;6.196;2024-02-26T14:10:43;9.45;;;5.28;;
57443;SDS011;43289;52.962;6.196;2024-02-26T14:13:09;10.32;;;5.50;;
57443;SDS011;43289;52.962;6.196;2024-02-26T14:15:35;6.53;;;4.40;;
57443;SDS011;43289;52.962;6.196;2024-02-26T14:18:03;7.40;;;4.55;;
57443;SDS011;43289;52.962;6.196;2024-02-26T14:20:29;7.38;;;4.65;;
57443;SDS011;43289;52.962;6.196;2024-02-26T14:22:55;8.02;;;4.65;;
57443;SDS011;43289;52.962;6.196;2024-02-26T14:25:21;9.18;;;4.72;;
57443;SDS011;43289;52.962;6.196;2024-02-26T14:27:48;6.22;;;3.70;;
57443;SDS011;43289;52.962;6.196;2024-02-26T14:30:14;7.90;;;4.47;;
57443;SDS011;43289;52.962;6.196;2024-02-26T14:32:40;8.63;;;5.13;;
57443;SDS011;43289;52.962;6.196;2024-02-26T14:35:06;7.40;;;4.47;;
57443;SDS011;43289;52.962;6.196;2024-02-26T14:37:34;8.45;;;5.20;;
57443;SDS011;43289;52.962;6.196;2024-02-26T14:40:00;10.13;;;5.68;;
57443;SDS011;43289;52.962;6.196;2024-02-26T14:42:27;10.68;;;6.30;;
57443;SDS011;43289;52.962;6.196;2024-02-26T14:44:53;7.97;;;6.15;;
57443;SDS011;43289;52.962;6.196;2024-02-26T14:47:19;7.07;;;5.03;;